createdAt,value
2018-08-22T05:39:14.446Z,17.90
2018-08-22T05:41:43.390Z,19.00
2018-08-22T05:44:12.518Z,18.90
2018-08-22T05:46:41.006Z,18.90
2018-08-22T05:49:09.547Z,18.90
2018-08-22T05:51:38.030Z,18.90
2018-08-22T05:54:07.569Z,18.90
2018-08-22T05:56:36.479Z,19.00
2018-08-22T05:59:10.192Z,19.00
2018-08-22T06:01:39.019Z,19.10
2018-08-22T06:04:07.608Z,19.20
2018-08-22T06:06:36.072Z,19.20
2018-08-22T06:09:08.459Z,19.30
2018-08-22T06:11:37.410Z,19.30
2018-08-22T06:14:06.207Z,19.40
2018-08-22T06:16:34.679Z,19.50
2018-08-22T06:19:03.149Z,19.60
2018-08-22T06:21:31.724Z,19.80
2018-08-22T06:24:00.219Z,19.90
2018-08-22T06:26:28.784Z,20.10
2018-08-22T06:28:57.276Z,20.20
2018-08-22T06:31:25.740Z,20.20
2018-08-22T06:33:54.444Z,20.30
2018-08-22T06:36:22.946Z,20.40
2018-08-22T06:38:51.499Z,20.50
2018-08-22T06:41:19.989Z,20.60
2018-08-22T06:43:48.567Z,20.70
2018-08-22T06:46:17.027Z,20.80
2018-08-22T06:48:45.493Z,20.90
2018-08-22T06:51:13.991Z,21.10
2018-08-22T06:53:42.540Z,21.20
2018-08-22T06:56:11.038Z,21.50
2018-08-22T06:58:39.502Z,21.80
2018-08-22T07:01:07.996Z,21.90
2018-08-22T07:03:36.648Z,22.10
2018-08-22T07:06:05.141Z,22.20
2018-08-22T07:08:33.636Z,22.30
2018-08-22T07:11:02.151Z,22.40
2018-08-22T07:13:30.634Z,22.40
2018-08-22T07:15:59.119Z,22.40
2018-08-22T07:18:27.658Z,22.40
2018-08-22T07:20:56.119Z,22.30
2018-08-22T07:23:24.670Z,22.20
2018-08-22T07:25:53.137Z,22.10
2018-08-22T07:28:21.609Z,21.90
2018-08-22T07:30:50.124Z,21.80
2018-08-22T07:33:18.679Z,21.70
2018-08-22T07:35:47.183Z,21.80
2018-08-22T07:38:15.600Z,21.80
2018-08-22T07:40:44.052Z,21.90
2018-08-22T07:43:12.628Z,22.00
2018-08-22T07:45:41.122Z,22.10
2018-08-22T07:48:09.600Z,22.20
2018-08-22T07:50:38.071Z,22.30
2018-08-22T07:53:06.633Z,22.40
2018-08-22T07:55:37.438Z,22.50
2018-08-22T07:58:06.137Z,22.60
2018-08-22T08:00:34.622Z,22.70
2018-08-22T08:03:03.240Z,22.70
2018-08-22T08:05:31.837Z,22.80
2018-08-22T08:08:00.309Z,22.90
2018-08-22T08:10:34.918Z,23.00
2018-08-22T08:13:04.308Z,23.10
2018-08-22T08:15:32.810Z,23.30
2018-08-22T08:18:01.293Z,23.40
2018-08-22T08:20:29.817Z,23.50
2018-08-22T08:22:58.401Z,23.60
2018-08-22T08:25:26.922Z,23.70
2018-08-22T08:27:55.413Z,23.80
2018-08-22T08:30:23.893Z,23.90
2018-08-22T08:32:52.461Z,24.00
2018-08-22T08:35:20.937Z,24.10
2018-08-22T08:37:49.449Z,24.20
2018-08-22T08:40:17.993Z,24.30
2018-08-22T08:42:46.593Z,24.40
2018-08-22T08:45:15.083Z,24.50
2018-08-22T08:47:43.570Z,24.60
2018-08-22T08:50:12.038Z,24.70
2018-08-22T08:52:40.568Z,24.80
2018-08-22T08:55:09.082Z,24.90
2018-08-22T08:57:37.551Z,25.10
2018-08-22T09:00:06.086Z,25.20
2018-08-22T09:02:34.591Z,25.30
2018-08-22T09:05:03.120Z,25.40
2018-08-22T09:07:31.616Z,25.50
2018-08-22T09:10:00.124Z,25.70
2018-08-22T09:12:28.601Z,25.70
2018-08-22T09:17:25.665Z,25.90
2018-08-22T09:19:54.099Z,26.00
2018-08-22T09:22:22.652Z,26.10
2018-08-22T09:24:51.131Z,26.20
2018-08-22T09:27:19.648Z,26.40
2018-08-22T09:29:48.206Z,26.50
2018-08-22T09:32:16.694Z,26.60
2018-08-22T09:34:45.328Z,26.80
2018-08-22T09:37:13.838Z,26.90
2018-08-22T09:39:42.380Z,27.00
2018-08-22T09:42:10.899Z,27.10
2018-08-22T09:44:39.413Z,27.20
2018-08-22T09:47:07.918Z,27.30
2018-08-22T09:49:36.393Z,27.40
2018-08-22T09:52:04.981Z,27.50
2018-08-22T09:54:40.986Z,27.50
2018-08-22T09:57:09.481Z,27.50
2018-08-22T09:59:38.001Z,27.60
2018-08-22T10:02:06.547Z,27.70
2018-08-22T10:04:35.195Z,27.80
2018-08-22T10:07:03.759Z,28.00
2018-08-22T10:09:32.197Z,28.00
2018-08-22T10:12:00.683Z,28.10
2018-08-22T10:14:29.297Z,28.20
2018-08-22T10:16:57.824Z,28.20
2018-08-22T10:19:26.298Z,28.30
2018-08-22T10:21:54.830Z,28.40
2018-08-22T10:24:23.426Z,28.60
2018-08-22T10:26:51.952Z,28.60
2018-08-22T10:29:20.476Z,28.70
2018-08-22T10:31:48.997Z,28.70
2018-08-22T10:34:17.866Z,28.90
2018-08-22T10:36:46.399Z,29.00
2018-08-22T10:39:14.922Z,29.00
2018-08-22T10:41:43.472Z,29.10
2018-08-22T10:44:12.115Z,29.20
2018-08-22T10:46:40.675Z,29.30
2018-08-22T10:49:09.176Z,29.40
2018-08-22T10:51:37.681Z,29.60
2018-08-22T10:54:06.536Z,29.70
2018-08-22T10:56:35.088Z,29.80
2018-08-22T10:59:03.593Z,30.00
2018-08-22T11:01:32.123Z,30.20
2018-08-22T11:04:00.730Z,30.40
2018-08-22T11:06:29.272Z,30.40
2018-08-22T11:08:57.782Z,30.60
2018-08-22T11:11:26.272Z,30.60
2018-08-22T11:13:54.888Z,30.70
2018-08-22T11:16:23.412Z,30.80
2018-08-22T11:18:51.948Z,31.00
2018-08-22T11:21:31.526Z,31.30
2018-08-22T11:24:11.383Z,31.60
2018-08-22T11:26:50.961Z,31.90
2018-08-22T11:29:30.715Z,32.10
2018-08-22T11:32:10.563Z,32.40
2018-08-22T11:34:47.093Z,32.70
2018-08-22T11:37:16.609Z,32.90
2018-08-22T11:39:46.515Z,33.10
2018-08-22T11:42:15.035Z,33.20
2018-08-22T11:44:43.536Z,33.30
2018-08-22T11:47:12.036Z,33.40
2018-08-22T11:49:40.598Z,33.60
2018-08-22T11:52:09.116Z,33.60
2018-08-22T11:54:37.723Z,33.50
2018-08-22T11:57:06.519Z,33.20
2018-08-22T11:59:35.197Z,33.00
2018-08-22T12:02:03.801Z,32.80
2018-08-22T12:04:32.465Z,32.70
2018-08-22T12:07:00.981Z,32.70
2018-08-22T12:09:29.501Z,32.70
2018-08-22T12:11:57.991Z,32.60
2018-08-22T12:14:26.608Z,32.60
2018-08-22T12:16:55.109Z,32.60
2018-08-22T12:19:23.678Z,32.50
2018-08-22T12:21:52.200Z,32.40
2018-08-22T12:24:20.806Z,32.30
2018-08-22T12:26:49.295Z,32.30
2018-08-22T12:29:17.882Z,32.20
2018-08-22T12:31:46.470Z,32.30
2018-08-22T12:34:15.078Z,32.30
2018-08-22T12:36:43.563Z,32.30
2018-08-22T12:39:12.094Z,32.40
2018-08-22T12:41:40.582Z,32.40
2018-08-22T12:44:09.142Z,32.30
2018-08-22T12:46:37.656Z,32.20
2018-08-22T12:49:06.185Z,32.00
2018-08-22T12:51:34.698Z,31.80
2018-08-22T12:54:03.312Z,31.90
2018-08-22T12:56:31.837Z,32.00
2018-08-22T12:59:00.328Z,32.30
2018-08-22T13:01:28.884Z,32.40
2018-08-22T13:03:57.950Z,32.50
2018-08-22T13:06:26.455Z,32.60
2018-08-22T13:08:54.957Z,32.70
2018-08-22T13:11:23.451Z,32.90
2018-08-22T13:13:52.102Z,33.00
2018-08-22T13:16:20.640Z,33.10
2018-08-22T13:18:49.137Z,33.20
2018-08-22T13:21:17.683Z,33.30
2018-08-22T13:23:46.438Z,33.40
2018-08-22T13:26:14.913Z,33.60
2018-08-22T13:28:43.515Z,33.70
2018-08-22T13:31:12.079Z,33.90
2018-08-22T13:33:40.592Z,34.00
2018-08-22T13:36:09.143Z,34.00
2018-08-22T13:38:37.553Z,33.90
2018-08-22T13:41:06.017Z,33.90
2018-08-22T13:43:34.649Z,34.60
2018-08-22T13:46:03.175Z,37.40
2018-08-22T13:48:31.653Z,39.10
2018-08-22T13:51:00.121Z,38.40
2018-08-22T13:53:28.771Z,38.80
2018-08-22T13:55:57.288Z,43.80
2018-08-22T13:58:25.753Z,47.90
2018-08-22T14:00:54.231Z,50.60
2018-08-22T14:03:22.820Z,52.90
2018-08-22T14:05:51.273Z,54.40
2018-08-22T14:08:19.863Z,56.40
2018-08-22T14:10:48.351Z,57.70
2018-08-22T14:13:16.877Z,59.00
2018-08-22T14:15:45.381Z,57.70
2018-08-22T14:18:13.847Z,58.40
2018-08-22T14:20:42.312Z,56.20
2018-08-22T14:23:10.824Z,57.30
2018-08-22T14:25:41.349Z,57.60
2018-08-22T14:28:09.928Z,58.30
2018-08-22T14:30:38.447Z,57.70
2018-08-22T14:33:06.969Z,58.70
2018-08-22T14:35:35.536Z,59.70
2018-08-22T14:38:04.018Z,60.00
2018-08-22T14:40:32.530Z,60.40
2018-08-22T14:43:01.179Z,58.80
2018-08-22T14:45:29.664Z,56.40
2018-08-22T14:47:58.167Z,57.60
2018-08-22T14:50:26.652Z,58.90
2018-08-22T14:52:55.251Z,60.00
2018-08-22T14:55:23.744Z,60.60
2018-08-22T14:57:52.275Z,61.10
2018-08-22T15:00:20.770Z,61.20
2018-08-22T15:02:49.463Z,60.80
2018-08-22T15:05:17.934Z,59.20
2018-08-22T15:07:46.442Z,57.00
2018-08-22T15:10:16.709Z,57.40
2018-08-22T15:12:45.564Z,58.00
2018-08-22T15:15:13.993Z,58.20
2018-08-22T15:17:42.654Z,58.00
2018-08-22T15:20:11.159Z,57.90
2018-08-22T15:22:39.738Z,57.90
2018-08-22T15:25:08.828Z,57.70
2018-08-22T15:27:37.335Z,57.80
2018-08-22T15:30:06.908Z,58.00
2018-08-22T15:32:35.414Z,57.30
2018-08-22T15:35:03.921Z,56.90
2018-08-22T15:37:32.410Z,56.70
2018-08-22T15:40:00.880Z,56.30
2018-08-22T15:42:29.333Z,55.20
2018-08-22T15:44:57.816Z,54.40
2018-08-22T15:47:26.377Z,54.20
2018-08-22T15:49:54.825Z,54.10
2018-08-22T15:52:23.337Z,54.10
2018-08-22T15:55:06.778Z,53.60
2018-08-22T15:57:48.233Z,53.60
2018-08-22T16:00:54.251Z,53.80
2018-08-22T16:03:23.901Z,53.90
2018-08-22T16:05:53.005Z,54.00
2018-08-22T16:08:23.940Z,54.10
2018-08-22T16:10:52.381Z,53.70
2018-08-22T16:13:26.207Z,53.50
2018-08-22T16:15:55.974Z,52.80
2018-08-22T16:18:24.476Z,51.30
2018-08-22T16:20:56.814Z,50.60
2018-08-22T16:23:27.630Z,49.90
2018-08-22T16:25:57.260Z,49.60
2018-08-22T16:28:26.387Z,49.30
2018-08-22T16:30:57.173Z,48.50
2018-08-22T16:33:25.162Z,47.90
2018-08-22T16:35:53.645Z,47.60
2018-08-22T16:38:22.165Z,47.60
2018-08-22T16:40:52.216Z,47.50
2018-08-22T16:43:37.015Z,47.00
2018-08-22T16:46:07.617Z,46.20
2018-08-22T16:48:36.482Z,44.40
2018-08-22T16:51:05.030Z,42.50
2018-08-22T16:53:34.178Z,40.90
2018-08-22T16:56:02.772Z,39.20
2018-08-22T16:58:31.328Z,37.80
2018-08-22T17:00:59.779Z,36.70
2018-08-22T17:03:28.378Z,35.80
2018-08-22T17:06:02.675Z,35.10
2018-08-22T17:08:31.183Z,34.40
2018-08-22T17:11:01.008Z,33.80
2018-08-22T17:13:40.667Z,33.40
2018-08-22T17:16:09.167Z,32.90
2018-08-22T17:18:37.670Z,32.50
2018-08-22T17:21:06.174Z,32.20
2018-08-22T17:23:34.747Z,31.90
2018-08-22T17:26:03.293Z,31.60
2018-08-22T17:28:38.436Z,31.20
2018-08-22T17:31:09.958Z,30.90
2018-08-22T17:33:42.765Z,30.60
2018-08-22T17:36:12.348Z,30.30
2018-08-22T17:38:43.884Z,30.00
2018-08-22T17:41:12.680Z,29.70
2018-08-22T17:44:06.180Z,29.50
2018-08-22T17:46:36.068Z,29.20
2018-08-22T17:49:04.524Z,28.90
2018-08-22T17:51:41.194Z,28.70
2018-08-22T17:54:09.712Z,28.50
2018-08-22T17:56:38.218Z,28.30
2018-08-22T17:59:06.721Z,28.10
2018-08-22T18:01:35.245Z,27.90
2018-08-22T18:04:03.874Z,27.80
2018-08-22T18:06:32.509Z,27.60
2018-08-22T18:09:02.757Z,27.50
2018-08-22T18:11:31.288Z,27.30
2018-08-22T18:13:59.897Z,27.20
2018-08-22T18:16:28.388Z,27.00
2018-08-22T18:18:56.864Z,26.90
2018-08-22T18:21:32.906Z,26.80
2018-08-22T18:24:01.836Z,26.70
2018-08-22T18:26:30.350Z,26.60
2018-08-22T18:28:58.884Z,26.40
2018-08-22T18:31:27.410Z,26.30
2018-08-22T18:33:58.402Z,26.10
2018-08-22T18:36:28.210Z,25.90
2018-08-22T18:39:16.672Z,25.80
2018-08-22T18:41:45.198Z,25.70
2018-08-22T18:44:15.912Z,25.60
2018-08-22T18:46:44.395Z,25.50
2018-08-22T18:49:12.929Z,25.40
2018-08-22T18:51:41.425Z,25.30
2018-08-22T18:54:09.999Z,25.20
2018-08-22T18:56:38.500Z,25.20
2018-08-22T18:59:18.207Z,25.10
2018-08-22T19:01:46.712Z,25.00
2018-08-22T19:04:16.198Z,24.90
2018-08-22T19:06:44.673Z,24.80
2018-08-22T19:09:13.152Z,24.70
2018-08-22T19:11:41.679Z,24.70
2018-08-22T19:14:10.224Z,24.60
2018-08-22T19:16:38.748Z,24.50
2018-08-22T19:19:07.274Z,24.50
2018-08-22T19:21:35.786Z,24.40
2018-08-22T19:24:04.980Z,24.40
2018-08-22T19:26:33.594Z,24.30
2018-08-22T19:29:03.810Z,24.20
2018-08-22T19:31:32.275Z,24.10
2018-08-22T19:34:00.905Z,24.10
2018-08-22T19:36:29.443Z,24.00
2018-08-22T19:38:57.943Z,23.90
2018-08-22T19:41:30.091Z,23.80
2018-08-22T19:43:58.653Z,23.70
2018-08-22T19:46:27.215Z,23.60
2018-08-22T19:48:55.770Z,23.50
2018-08-22T19:51:24.206Z,23.40
2018-08-22T19:54:01.380Z,23.40
2018-08-22T19:56:30.468Z,23.30
2018-08-22T19:58:59.071Z,23.30
2018-08-22T20:01:30.602Z,23.20
2018-08-22T20:03:59.287Z,23.20
2018-08-22T20:06:28.296Z,23.10
2018-08-22T20:08:57.889Z,23.10
2018-08-22T20:11:26.790Z,23.10
2018-08-22T20:13:59.252Z,23.00
2018-08-22T20:16:27.844Z,23.00
2018-08-22T20:18:58.618Z,22.90
2018-08-22T20:21:31.082Z,22.80
2018-08-22T20:24:00.206Z,22.80
2018-08-22T20:26:29.358Z,22.70
2018-08-22T20:28:59.605Z,22.70
2018-08-22T20:31:28.097Z,22.70
2018-08-22T20:34:05.734Z,22.70
2018-08-22T20:36:34.296Z,22.70
2018-08-22T20:39:06.603Z,22.60
2018-08-22T20:41:35.367Z,22.60
2018-08-22T20:44:16.551Z,22.60
2018-08-22T20:46:46.227Z,22.50
2018-08-22T20:49:15.938Z,22.50
2018-08-22T20:51:44.438Z,22.40
2018-08-22T20:54:14.129Z,22.40
2018-08-22T20:56:48.571Z,22.30
2018-08-22T20:59:18.281Z,22.30
2018-08-22T21:01:49.806Z,22.20
2018-08-22T21:04:18.416Z,22.20
2018-08-22T21:06:46.915Z,22.10
2018-08-22T21:09:15.411Z,22.10
2018-08-22T21:11:44.337Z,22.10
2018-08-22T21:14:13.165Z,22.00
2018-08-22T21:16:41.677Z,22.00
2018-08-22T21:19:10.175Z,21.90
2018-08-22T21:21:38.920Z,21.90
2018-08-22T21:24:07.491Z,21.80
2018-08-22T21:26:43.759Z,21.80
2018-08-22T21:29:12.457Z,21.80
2018-08-22T21:31:40.978Z,21.80
2018-08-22T21:34:14.981Z,21.70
2018-08-22T21:36:45.055Z,21.70
2018-08-22T21:39:18.994Z,21.70
2018-08-22T21:41:47.987Z,21.70
2018-08-22T21:44:21.230Z,21.60
2018-08-22T21:46:56.038Z,21.60
2018-08-22T21:49:24.929Z,21.60
2018-08-22T21:51:54.437Z,21.50
2018-08-22T21:54:22.952Z,21.50
2018-08-22T21:56:51.461Z,21.50
2018-08-22T21:59:19.996Z,21.50
2018-08-22T22:01:53.670Z,21.40
2018-08-22T22:04:31.474Z,21.40
2018-08-22T22:07:00.042Z,21.30
2018-08-22T22:09:28.567Z,21.30
2018-08-22T22:11:58.732Z,21.20
2018-08-22T22:14:31.012Z,21.20
2018-08-22T22:17:00.577Z,21.20
2018-08-22T22:19:30.875Z,21.10
2018-08-22T22:21:59.807Z,21.10
2018-08-22T22:24:28.399Z,21.10
2018-08-22T22:26:57.125Z,21.00
2018-08-22T22:29:32.713Z,21.00
2018-08-22T22:32:04.230Z,21.00
2018-08-22T22:34:35.631Z,20.90
2018-08-22T22:37:04.103Z,20.90
2018-08-22T22:39:41.292Z,20.90
2018-08-22T22:42:15.559Z,20.80
2018-08-22T22:44:48.040Z,20.80
2018-08-22T22:47:21.748Z,20.70
2018-08-22T22:49:51.056Z,20.70
2018-08-22T22:52:43.184Z,20.70
2018-08-22T22:55:12.142Z,20.60
